createdAt,value
2023-05-25T00:01:10.482Z,87.60
2023-05-25T00:03:43.998Z,88.66
2023-05-25T00:06:18.388Z,89.88
2023-05-25T00:08:54.886Z,89.42
2023-05-25T00:11:27.829Z,88.39
2023-05-25T00:14:02.106Z,87.96
2023-05-25T00:16:37.500Z,87.89
2023-05-25T00:19:11.080Z,89.31
2023-05-25T00:21:44.283Z,89.91
2023-05-25T00:24:18.274Z,91.30
2023-05-25T00:26:51.128Z,90.63
2023-05-25T00:29:26.189Z,91.52
2023-05-25T00:31:59.141Z,90.12
2023-05-25T00:34:31.959Z,90.16
2023-05-25T00:37:05.051Z,89.60
2023-05-25T00:39:38.015Z,89.43
2023-05-25T00:42:11.471Z,90.19
2023-05-25T00:44:45.907Z,90.03
2023-05-25T00:47:20.934Z,90.33
2023-05-25T00:49:53.818Z,90.49
2023-05-25T00:52:27.159Z,92.00
2023-05-25T00:55:03.412Z,93.21
2023-05-25T00:57:38.253Z,92.94
2023-05-25T01:00:15.446Z,93.17
2023-05-25T01:02:52.901Z,92.94
2023-05-25T01:05:29.809Z,92.29
2023-05-25T01:08:06.118Z,91.04
2023-05-25T01:10:40.586Z,91.37
2023-05-25T01:13:15.593Z,92.55
2023-05-25T01:15:50.885Z,92.65
2023-05-25T01:18:23.787Z,91.66
2023-05-25T01:21:13.141Z,90.28
2023-05-25T01:23:52.068Z,89.68
2023-05-25T01:26:28.244Z,90.42
2023-05-25T01:29:03.328Z,90.86
2023-05-25T01:31:37.149Z,89.76
2023-05-25T01:34:12.296Z,89.40
2023-05-25T01:36:49.352Z,89.97
2023-05-25T01:39:23.349Z,89.90
2023-05-25T01:41:56.158Z,89.99
2023-05-25T01:44:29.975Z,89.88
2023-05-25T01:47:09.630Z,91.13
2023-05-25T01:49:47.761Z,91.90
2023-05-25T01:52:27.377Z,91.64
2023-05-25T01:55:06.431Z,92.52
2023-05-25T01:57:44.760Z,92.43
2023-05-25T02:00:20.069Z,92.77
2023-05-25T02:02:55.159Z,93.39
2023-05-25T02:05:28.364Z,92.87
2023-05-25T02:08:02.683Z,92.49
2023-05-25T02:10:38.347Z,91.12
2023-05-25T02:13:11.267Z,90.99
2023-05-25T02:15:44.266Z,90.76
2023-05-25T02:18:18.289Z,90.94
2023-05-25T02:20:51.649Z,90.67
2023-05-25T02:23:25.901Z,90.75
2023-05-25T02:25:58.776Z,90.52
2023-05-25T02:28:31.551Z,90.45
2023-05-25T02:31:04.361Z,90.54
2023-05-25T02:33:37.240Z,90.78
2023-05-25T02:36:10.195Z,91.75
2023-05-25T02:38:44.455Z,91.74
2023-05-25T02:41:17.895Z,92.55
2023-05-25T02:43:51.259Z,92.70
2023-05-25T02:46:24.149Z,93.36
2023-05-25T02:48:57.116Z,93.82
2023-05-25T02:51:32.413Z,93.77
2023-05-25T02:54:17.483Z,94.84
2023-05-25T02:56:50.735Z,96.22
2023-05-25T02:59:24.926Z,96.86
2023-05-25T03:01:57.787Z,96.91
2023-05-25T03:04:31.425Z,96.62
2023-05-25T03:07:04.890Z,96.81
2023-05-25T03:09:39.411Z,97.02
2023-05-25T03:12:12.360Z,97.78
2023-05-25T03:14:45.421Z,98.53
2023-05-25T03:17:18.497Z,98.38
2023-05-25T03:19:52.156Z,98.98
2023-05-25T03:22:25.670Z,98.58
2023-05-25T03:25:00.716Z,98.24
2023-05-25T03:27:33.546Z,98.05
2023-05-25T03:30:07.567Z,97.14
2023-05-25T03:32:40.572Z,96.40
2023-05-25T03:35:13.349Z,96.71
2023-05-25T03:37:46.171Z,96.15
2023-05-25T03:40:20.517Z,96.81
2023-05-25T03:42:53.330Z,96.64
2023-05-25T03:45:27.138Z,96.42
2023-05-25T03:48:00.263Z,96.88
2023-05-25T03:50:34.229Z,95.94
2023-05-25T03:53:07.396Z,95.46
2023-05-25T03:55:41.967Z,95.88
2023-05-25T03:58:16.075Z,95.39
2023-05-25T04:00:50.411Z,95.10
2023-05-25T04:03:23.945Z,95.05
2023-05-25T04:05:58.149Z,94.78
2023-05-25T04:08:30.982Z,95.77
2023-05-25T04:11:05.908Z,94.54
2023-05-25T04:13:40.264Z,94.86
2023-05-25T04:16:14.860Z,95.49
2023-05-25T04:18:48.216Z,95.23
2023-05-25T04:21:21.561Z,95.31
2023-05-25T04:23:54.496Z,95.12
2023-05-25T04:26:28.618Z,94.36
2023-05-25T04:29:03.001Z,94.62
2023-05-25T04:31:49.436Z,93.85
2023-05-25T04:34:51.383Z,93.55
2023-05-25T04:37:33.424Z,94.24
2023-05-25T04:40:14.118Z,93.91
2023-05-25T04:42:49.433Z,93.78
2023-05-25T04:45:23.936Z,93.80
2023-05-25T04:47:58.563Z,94.02
2023-05-25T04:50:33.582Z,93.47
2023-05-25T04:53:06.510Z,93.88
2023-05-25T04:55:40.013Z,93.56
2023-05-25T04:58:15.206Z,93.50
2023-05-25T05:00:49.736Z,93.95
2023-05-25T05:03:24.260Z,94.16
2023-05-25T05:05:57.379Z,94.17
2023-05-25T05:08:34.222Z,93.87
2023-05-25T05:11:07.334Z,94.56
2023-05-25T05:13:41.832Z,93.91
2023-05-25T05:16:14.698Z,94.12
2023-05-25T05:18:48.389Z,93.36
2023-05-25T05:21:23.347Z,93.35
2023-05-25T05:24:02.262Z,92.41
2023-05-25T05:26:48.123Z,91.94
2023-05-25T05:29:32.039Z,91.57
2023-05-25T05:32:05.129Z,91.27
2023-05-25T05:34:38.614Z,91.13
2023-05-25T05:37:19.358Z,90.59
2023-05-25T05:39:53.229Z,90.37
2023-05-25T05:42:27.025Z,89.94
2023-05-25T05:45:01.194Z,88.77
2023-05-25T05:47:34.783Z,87.79
2023-05-25T05:50:08.855Z,88.29
2023-05-25T05:52:43.000Z,87.56
2023-05-25T05:55:17.596Z,87.28
2023-05-25T05:57:50.798Z,86.68
2023-05-25T06:00:26.975Z,85.06
2023-05-25T06:03:01.091Z,84.22
2023-05-25T06:05:35.641Z,84.83
2023-05-25T06:08:10.171Z,85.26
2023-05-25T06:10:43.337Z,83.37
2023-05-25T06:13:16.614Z,82.90
2023-05-25T06:15:50.781Z,81.85
2023-05-25T06:18:28.381Z,82.25
2023-05-25T06:21:01.914Z,80.79
2023-05-25T06:23:35.094Z,79.78
2023-05-25T06:26:08.452Z,79.55
2023-05-25T06:28:42.405Z,79.95
2023-05-25T06:31:17.039Z,79.92
2023-05-25T06:33:49.903Z,79.23
2023-05-25T06:36:22.822Z,78.15
2023-05-25T06:38:55.978Z,77.27
2023-05-25T06:41:29.866Z,77.17
2023-05-25T06:44:02.773Z,77.03
2023-05-25T06:46:39.666Z,75.10
2023-05-25T06:49:12.818Z,75.10
2023-05-25T06:51:46.297Z,74.73
2023-05-25T06:54:19.658Z,74.05
2023-05-25T06:56:52.547Z,73.61
2023-05-25T06:59:25.369Z,72.91
2023-05-25T07:02:00.245Z,71.31
2023-05-25T07:04:34.630Z,69.71
2023-05-25T07:07:08.081Z,69.42
2023-05-25T07:09:41.717Z,68.93
2023-05-25T07:12:14.652Z,68.11
2023-05-25T07:14:48.512Z,67.99
2023-05-25T07:17:23.327Z,65.86
2023-05-25T07:19:56.142Z,64.62
2023-05-25T07:22:28.998Z,64.28
2023-05-25T07:25:01.772Z,65.97
2023-05-25T07:27:36.186Z,65.97
2023-05-25T07:30:10.600Z,64.06
2023-05-25T07:32:44.774Z,64.76
2023-05-25T07:35:17.560Z,63.87
2023-05-25T07:37:57.564Z,60.54
2023-05-25T07:40:30.463Z,61.75
2023-05-25T07:43:03.232Z,60.79
2023-05-25T07:45:36.050Z,58.52
2023-05-25T07:48:10.281Z,58.59
2023-05-25T07:50:43.229Z,57.13
2023-05-25T07:53:16.021Z,58.56
2023-05-25T07:55:48.873Z,57.66
2023-05-25T07:58:21.610Z,58.73
2023-05-25T08:00:54.429Z,55.10
2023-05-25T08:03:39.903Z,56.28
2023-05-25T08:06:20.764Z,56.99
2023-05-25T08:08:53.573Z,56.43
2023-05-25T08:11:27.678Z,57.85
2023-05-25T08:14:00.587Z,56.56
2023-05-25T08:16:33.478Z,56.45
2023-05-25T08:19:07.709Z,53.98
2023-05-25T08:21:40.674Z,56.88
2023-05-25T08:24:13.594Z,56.79
2023-05-25T08:26:54.817Z,56.14
2023-05-25T08:29:28.075Z,54.96
2023-05-25T08:32:00.925Z,54.15
2023-05-25T08:34:35.429Z,53.14
2023-05-25T08:37:08.242Z,53.17
2023-05-25T08:39:41.048Z,53.25
2023-05-25T08:42:13.946Z,53.33
2023-05-25T08:44:46.893Z,54.67
2023-05-25T08:47:23.958Z,52.45
2023-05-25T08:49:59.691Z,52.76
2023-05-25T08:52:35.338Z,52.74
2023-05-25T08:55:10.425Z,53.71
2023-05-25T08:57:50.014Z,53.27
2023-05-25T09:00:29.319Z,54.12
2023-05-25T09:03:08.262Z,52.24
2023-05-25T09:05:43.557Z,52.48
2023-05-25T09:08:18.146Z,51.29
2023-05-25T09:10:52.716Z,51.84
2023-05-25T09:13:25.718Z,51.95
2023-05-25T09:15:58.677Z,52.83
2023-05-25T09:18:31.565Z,52.11
2023-05-25T09:21:06.201Z,50.58
2023-05-25T09:23:39.284Z,50.53
2023-05-25T09:26:12.142Z,53.11
2023-05-25T09:28:48.398Z,50.08
2023-05-25T09:31:24.751Z,52.30
2023-05-25T09:34:00.204Z,50.83
2023-05-25T09:36:35.557Z,50.35
2023-05-25T09:39:10.249Z,47.97
2023-05-25T09:41:43.073Z,49.50
2023-05-25T09:44:15.855Z,49.64
2023-05-25T09:46:49.169Z,50.11
2023-05-25T09:49:22.639Z,52.56
2023-05-25T09:51:57.188Z,50.12
2023-05-25T09:54:30.653Z,49.77
2023-05-25T09:57:05.503Z,50.71
2023-05-25T09:59:38.769Z,49.54
2023-05-25T10:02:12.017Z,49.85
2023-05-25T10:04:46.411Z,48.44
2023-05-25T10:07:21.259Z,48.97
2023-05-25T10:09:56.795Z,49.62
2023-05-25T10:12:31.564Z,50.40
2023-05-25T10:15:05.538Z,49.11
2023-05-25T10:17:51.523Z,49.88
2023-05-25T10:20:28.265Z,48.44
2023-05-25T10:23:09.599Z,49.31
2023-05-25T10:25:46.344Z,47.80
2023-05-25T10:28:23.438Z,48.10
2023-05-25T10:30:57.822Z,48.75
2023-05-25T10:38:52.692Z,48.92
2023-05-25T10:41:26.264Z,47.72
2023-05-25T10:43:59.784Z,48.33
2023-05-25T10:46:32.747Z,47.23
2023-05-25T10:49:05.856Z,47.20
2023-05-25T10:51:39.656Z,47.15
2023-05-25T10:54:14.800Z,48.42
2023-05-25T10:57:12.769Z,45.47
2023-05-25T10:59:50.591Z,47.64
2023-05-25T11:02:24.450Z,46.99
2023-05-25T11:05:32.823Z,47.54
2023-05-25T11:08:08.543Z,48.53
2023-05-25T11:10:55.133Z,46.80
2023-05-25T11:13:39.800Z,44.93
2023-05-25T11:16:24.554Z,46.46
2023-05-25T11:18:58.629Z,46.21
2023-05-25T11:21:45.558Z,45.96
2023-05-25T11:24:18.886Z,46.03
2023-05-25T11:26:58.375Z,44.43
2023-05-25T11:29:36.197Z,45.18
2023-05-25T11:32:18.243Z,46.66
2023-05-25T11:34:54.123Z,46.92
2023-05-25T11:37:31.347Z,44.67
2023-05-25T11:40:09.311Z,44.98
2023-05-25T11:42:43.764Z,43.82
2023-05-25T11:45:16.737Z,44.87
2023-05-25T11:47:49.662Z,46.53
2023-05-25T11:50:22.726Z,45.21
2023-05-25T11:52:55.668Z,45.26
2023-05-25T11:55:28.773Z,44.17
2023-05-25T11:58:03.005Z,44.67
2023-05-25T12:00:35.790Z,45.44
2023-05-25T12:03:10.489Z,45.10
2023-05-25T12:05:43.543Z,43.84
2023-05-25T12:08:17.030Z,44.13
2023-05-25T12:10:52.142Z,43.66
2023-05-25T12:13:26.400Z,44.42
2023-05-25T12:16:00.299Z,43.12
2023-05-25T12:18:33.323Z,44.46
2023-05-25T12:21:08.391Z,43.25
2023-05-25T12:23:41.422Z,44.20
2023-05-25T12:26:16.354Z,42.59
2023-05-25T12:29:04.887Z,43.51
2023-05-25T12:31:39.623Z,42.57
2023-05-25T12:34:13.842Z,44.14
2023-05-25T12:36:48.083Z,43.13
2023-05-25T12:39:34.606Z,43.23
2023-05-25T12:42:14.573Z,43.89
2023-05-25T12:44:48.772Z,44.33
2023-05-25T12:47:23.691Z,42.33
2023-05-25T12:50:12.099Z,42.59
2023-05-25T12:52:46.783Z,43.05
2023-05-25T12:55:20.464Z,43.04
2023-05-25T12:57:53.968Z,43.14
2023-05-25T13:00:31.913Z,42.54
2023-05-25T13:03:07.605Z,42.79
2023-05-25T13:05:40.700Z,42.53
2023-05-25T13:08:13.664Z,42.86
2023-05-25T13:10:48.607Z,44.51
2023-05-25T13:13:21.476Z,42.19
2023-05-25T13:15:55.642Z,43.85
2023-05-25T13:18:28.425Z,42.00
2023-05-25T13:21:01.377Z,44.26
2023-05-25T13:23:34.394Z,43.52
2023-05-25T13:26:07.712Z,42.58
2023-05-25T13:28:40.530Z,42.32
2023-05-25T13:31:14.687Z,41.52
2023-05-25T13:33:47.567Z,43.70
2023-05-25T13:36:20.480Z,42.32
2023-05-25T13:38:53.363Z,42.41
2023-05-25T13:41:26.744Z,41.06
2023-05-25T13:43:59.690Z,43.04
2023-05-25T13:46:35.819Z,43.64
2023-05-25T13:49:08.768Z,43.10
2023-05-25T13:51:41.664Z,42.28
2023-05-25T13:54:14.440Z,42.88
2023-05-25T13:56:47.262Z,43.02
2023-05-25T13:59:20.071Z,42.46
2023-05-25T14:01:56.044Z,42.83
2023-05-25T14:04:29.413Z,42.63
2023-05-25T14:07:02.762Z,42.25
2023-05-25T14:09:35.607Z,41.90
2023-05-25T14:12:08.687Z,43.11
2023-05-25T14:14:41.675Z,43.40
2023-05-25T14:17:15.874Z,42.65
2023-05-25T14:19:48.666Z,42.20
2023-05-25T14:22:21.384Z,44.01
2023-05-25T14:24:54.285Z,41.57
2023-05-25T14:27:30.133Z,42.53
2023-05-25T14:30:02.990Z,42.29
2023-05-25T14:32:37.328Z,41.35
2023-05-25T14:35:10.756Z,41.38
2023-05-25T14:37:43.509Z,42.89
2023-05-25T14:40:16.590Z,43.41
2023-05-25T14:42:49.770Z,43.11
2023-05-25T14:45:22.646Z,41.23
2023-05-25T14:48:11.958Z,42.82
2023-05-25T14:50:49.118Z,42.66
2023-05-25T14:53:21.871Z,43.00
2023-05-25T14:55:54.641Z,41.29
2023-05-25T14:58:27.420Z,42.07
2023-05-25T15:01:00.257Z,43.21
2023-05-25T15:03:34.414Z,42.92
2023-05-25T15:06:08.045Z,43.61
2023-05-25T15:08:41.106Z,42.31
2023-05-25T15:11:13.861Z,42.12
2023-05-25T15:13:46.894Z,42.55
2023-05-25T15:16:19.782Z,42.09
2023-05-25T15:18:53.930Z,42.67
2023-05-25T15:21:26.916Z,43.27
2023-05-25T15:23:59.616Z,43.01
2023-05-25T15:26:32.361Z,42.96
2023-05-25T15:29:05.126Z,43.37
2023-05-25T15:31:37.904Z,43.28
2023-05-25T15:34:12.135Z,42.68
2023-05-25T15:36:44.909Z,43.36
2023-05-25T15:39:17.763Z,43.23
2023-05-25T15:41:51.016Z,42.34
2023-05-25T15:44:23.998Z,42.97
2023-05-25T15:46:56.848Z,42.43
2023-05-25T15:49:32.133Z,41.67
2023-05-25T15:52:05.542Z,43.29
2023-05-25T15:54:38.476Z,43.24
2023-05-25T15:57:11.335Z,42.04
2023-05-25T15:59:44.372Z,42.97
2023-05-25T16:02:17.348Z,42.09
2023-05-25T16:04:51.567Z,42.83
2023-05-25T16:07:24.420Z,42.04
2023-05-25T16:09:57.161Z,43.31
2023-05-25T16:12:29.880Z,42.60
2023-05-25T16:15:02.669Z,44.28
2023-05-25T16:17:35.469Z,42.96
2023-05-25T16:20:10.797Z,43.63
2023-05-25T16:22:43.564Z,43.36
2023-05-25T16:25:16.464Z,44.02
2023-05-25T16:27:49.355Z,43.38
2023-05-25T16:30:22.051Z,44.42
2023-05-25T16:32:54.946Z,43.53
2023-05-25T16:35:29.071Z,43.78
2023-05-25T16:38:01.952Z,45.03
2023-05-25T16:40:34.706Z,43.26
2023-05-25T16:43:07.528Z,44.09
2023-05-25T16:45:40.289Z,44.04
2023-05-25T16:48:13.314Z,44.12
2023-05-25T16:50:47.670Z,43.45
2023-05-25T16:53:20.450Z,46.13
2023-05-25T16:55:53.318Z,45.21
2023-05-25T16:58:26.199Z,45.05
2023-05-25T17:00:58.950Z,44.89
2023-05-25T17:03:31.739Z,45.36
2023-05-25T17:06:06.584Z,46.69
2023-05-25T17:08:39.386Z,46.81
2023-05-25T17:11:12.253Z,45.87
2023-05-25T17:13:45.070Z,45.53
2023-05-25T17:16:18.357Z,45.95
2023-05-25T17:18:51.346Z,45.46
2023-05-25T17:21:25.784Z,45.72
2023-05-25T17:23:59.289Z,45.81
2023-05-25T17:26:32.137Z,47.12
2023-05-25T17:29:06.154Z,46.21
2023-05-25T17:31:38.985Z,48.37
2023-05-25T17:34:11.757Z,46.84
2023-05-25T17:36:46.050Z,46.83
2023-05-25T17:39:18.961Z,48.03
2023-05-25T17:41:51.756Z,47.28
2023-05-25T17:44:26.056Z,47.62
2023-05-25T17:46:58.879Z,47.49
2023-05-25T17:49:31.898Z,47.98
2023-05-25T17:52:07.493Z,48.07
2023-05-25T17:54:40.230Z,48.60
2023-05-25T17:57:13.245Z,49.20
2023-05-25T17:59:46.038Z,48.45
2023-05-25T18:02:19.036Z,48.36
2023-05-25T18:04:52.036Z,47.82
2023-05-25T18:07:26.229Z,47.95
2023-05-25T18:09:59.026Z,47.74
2023-05-25T18:12:32.523Z,48.76
2023-05-25T18:15:06.045Z,48.81
2023-05-25T18:17:38.791Z,48.43
2023-05-25T18:20:12.414Z,48.99
2023-05-25T18:22:46.661Z,49.06
2023-05-25T18:25:19.472Z,52.18
2023-05-25T18:27:52.219Z,52.52
2023-05-25T18:30:25.051Z,52.75
2023-05-25T18:32:57.932Z,51.67
2023-05-25T18:35:31.083Z,51.37
2023-05-25T18:38:06.812Z,53.14
2023-05-25T18:40:39.654Z,53.55
2023-05-25T18:43:12.584Z,55.79
2023-05-25T18:45:45.502Z,54.27
2023-05-25T18:48:19.185Z,53.93
2023-05-25T18:50:52.373Z,54.96
2023-05-25T18:53:26.465Z,54.25
2023-05-25T18:55:59.242Z,54.58
2023-05-25T18:58:32.053Z,54.93
2023-05-25T19:01:04.971Z,55.55
2023-05-25T19:03:38.023Z,54.85
2023-05-25T19:06:11.027Z,55.72
2023-05-25T19:08:45.238Z,55.75
2023-05-25T19:11:19.615Z,54.66
2023-05-25T19:13:52.468Z,56.81
2023-05-25T19:16:25.313Z,57.46
2023-05-25T19:18:58.157Z,57.33
2023-05-25T19:21:31.377Z,57.41
2023-05-25T19:24:05.949Z,57.55
2023-05-25T19:26:39.243Z,58.10
2023-05-25T19:29:11.994Z,58.79
2023-05-25T19:31:44.789Z,59.38
2023-05-25T19:34:17.603Z,59.80
2023-05-25T19:36:59.790Z,59.79
2023-05-25T19:39:36.089Z,60.76
2023-05-25T19:42:09.354Z,60.62
2023-05-25T19:44:42.195Z,61.92
2023-05-25T19:47:15.156Z,62.45
2023-05-25T19:49:48.118Z,63.79
2023-05-25T19:52:21.031Z,64.30
2023-05-25T19:54:55.244Z,63.40
2023-05-25T19:57:28.057Z,63.75
2023-05-25T20:00:00.853Z,65.13
2023-05-25T20:02:33.985Z,65.41
2023-05-25T20:05:07.242Z,65.71
2023-05-25T20:07:40.025Z,66.26
2023-05-25T20:10:14.519Z,66.37
2023-05-25T20:12:47.261Z,66.34
2023-05-25T20:15:20.123Z,66.58
2023-05-25T20:17:52.871Z,67.62
2023-05-25T20:20:25.720Z,67.48
2023-05-25T20:22:58.748Z,67.64
2023-05-25T20:25:32.930Z,66.50
2023-05-25T20:28:05.652Z,66.75
2023-05-25T20:30:38.524Z,68.24
2023-05-25T20:33:11.323Z,67.59
2023-05-25T20:35:44.383Z,68.37
2023-05-25T20:38:17.438Z,68.04
2023-05-25T20:40:51.738Z,67.73
2023-05-25T20:43:24.557Z,67.96
2023-05-25T20:45:57.395Z,68.39
2023-05-25T20:48:30.266Z,68.71
2023-05-25T20:51:03.116Z,68.14
2023-05-25T20:53:36.262Z,68.50
2023-05-25T20:56:10.520Z,68.35
2023-05-25T20:58:43.340Z,67.69
2023-05-25T21:01:16.483Z,67.90
2023-05-25T21:03:49.280Z,68.46
2023-05-25T21:06:22.590Z,68.82
2023-05-25T21:08:55.764Z,68.86
2023-05-25T21:11:29.894Z,68.63
2023-05-25T21:14:03.229Z,68.40
2023-05-25T21:16:36.227Z,69.18
2023-05-25T21:19:09.414Z,69.14
2023-05-25T21:21:42.543Z,69.28
2023-05-25T21:24:15.548Z,69.23
2023-05-25T21:26:49.800Z,69.04
2023-05-25T21:29:22.777Z,69.04
2023-05-25T21:31:55.777Z,69.32
2023-05-25T21:34:29.118Z,69.66
2023-05-25T21:37:02.273Z,70.13
2023-05-25T21:39:35.407Z,70.16
2023-05-25T21:42:10.614Z,69.85
2023-05-25T21:44:43.475Z,70.99
2023-05-25T21:47:16.487Z,71.71
2023-05-25T21:49:50.030Z,72.05
2023-05-25T21:52:25.998Z,72.15
2023-05-25T21:54:59.114Z,72.29
2023-05-25T21:57:33.523Z,72.46
2023-05-25T22:00:07.940Z,72.45
2023-05-25T22:02:46.362Z,73.08
2023-05-25T22:05:19.575Z,72.90
2023-05-25T22:07:54.251Z,73.00
2023-05-25T22:10:28.942Z,72.72
2023-05-25T22:13:03.617Z,73.35
2023-05-25T22:15:36.343Z,73.13
2023-05-25T22:18:09.214Z,73.77
2023-05-25T22:20:42.339Z,73.58
2023-05-25T22:23:15.322Z,73.92
2023-05-25T22:25:48.159Z,73.89
2023-05-25T22:28:22.373Z,73.92
2023-05-25T22:30:55.232Z,73.73
2023-05-25T22:33:28.072Z,73.65
2023-05-25T22:36:00.958Z,73.50
2023-05-25T22:38:33.782Z,73.54
2023-05-25T22:41:06.563Z,73.50
2023-05-25T22:43:40.830Z,73.95
2023-05-25T22:46:14.304Z,74.38
2023-05-25T22:48:47.584Z,74.61
2023-05-25T22:51:21.627Z,75.17
2023-05-25T22:53:55.308Z,75.08
2023-05-25T22:56:28.353Z,74.82
2023-05-25T22:59:02.554Z,76.17
2023-05-25T23:01:35.467Z,76.65
2023-05-25T23:04:08.957Z,76.96
2023-05-25T23:06:42.010Z,77.47
2023-05-25T23:09:14.915Z,77.01
2023-05-25T23:11:47.683Z,77.73
2023-05-25T23:14:21.957Z,77.75
2023-05-25T23:16:54.816Z,77.53
2023-05-25T23:19:27.590Z,77.95
2023-05-25T23:22:00.602Z,78.62
2023-05-25T23:24:33.447Z,78.60
2023-05-25T23:27:07.011Z,79.28
2023-05-25T23:29:41.254Z,79.31
2023-05-25T23:32:14.087Z,79.82
2023-05-25T23:34:46.917Z,79.98
2023-05-25T23:37:19.727Z,80.12
2023-05-25T23:39:52.506Z,80.63
2023-05-25T23:42:28.133Z,80.49
2023-05-25T23:45:02.346Z,80.90
2023-05-25T23:47:35.130Z,80.94
2023-05-25T23:50:08.691Z,81.97
2023-05-25T23:52:41.877Z,82.08
2023-05-25T23:55:15.306Z,82.75
2023-05-25T23:57:48.339Z,82.21
